Time;durP1;ratioP1;P1;durP2;ratioP2;P2;SDS_P1;SDS_P2;PMS_P1;PMS_P2;Temp;Humidity;BMP_temperature;BMP_pressure;BME280_temperature;BME280_humidity;BME280_pressure;Samples;Min_cycle;Max_cycle;Signal;HPM_P1;HPM_P2
2021/07/26 00:01:45;;;;;;;22.02;10.03;;;;;;;19.76;100.00;99366.66;1708349;83;21404;-67
2021/07/26 00:04:14;;;;;;;11.60;8.70;;;;;;;19.73;100.00;99370.80;1708710;84;21048;-69
2021/07/26 00:06:43;;;;;;;15.48;8.68;;;;;;;19.72;100.00;99366.38;1708723;83;21059;-68
2021/07/26 00:09:12;;;;;;;14.38;9.03;;;;;;;19.73;100.00;99366.78;1708600;83;21510;-67
2021/07/26 00:11:41;;;;;;;15.10;9.05;;;;;;;19.73;100.00;99373.47;1708569;84;21166;-66
2021/07/26 00:14:10;;;;;;;13.60;8.70;;;;;;;19.72;100.00;99367.72;1708752;83;20992;-67
2021/07/26 00:16:39;;;;;;;18.77;9.28;;;;;;;19.70;100.00;99368.24;1708919;84;21628;-67
2021/07/26 00:19:09;;;;;;;11.05;8.73;;;;;;;19.66;100.00;99363.48;1708626;83;20912;-67
2021/07/26 00:21:40;;;;;;;19.55;8.73;;;;;;;19.63;100.00;99366.27;1708611;83;21442;-66
2021/07/26 00:24:10;;;;;;;13.18;8.68;;;;;;;19.62;100.00;99361.86;1708870;83;21419;-67
2021/07/26 00:26:41;;;;;;;13.35;8.35;;;;;;;19.62;100.00;99356.97;1708499;83;21464;-67
2021/07/26 00:29:11;;;;;;;11.20;8.35;;;;;;;19.60;100.00;99361.05;1708664;83;21454;-67
2021/07/26 00:31:41;;;;;;;17.52;9.43;;;;;;;19.57;100.00;99359.83;1708424;83;20916;-67
2021/07/26 00:34:26;;;;;;;14.93;8.55;;;;;;;19.56;100.00;99362.56;1708570;84;20920;-67
2021/07/26 00:37:02;;;;;;;16.23;8.75;;;;;;;19.54;100.00;99357.73;1708620;83;21137;-67
2021/07/26 00:39:33;;;;;;;13.15;8.13;;;;;;;19.51;100.00;99357.36;1708490;83;21515;-67
2021/07/26 00:42:03;;;;;;;14.05;8.45;;;;;;;19.50;100.00;99357.83;1708708;83;26800;-66
2021/07/26 00:44:34;;;;;;;11.12;8.55;;;;;;;19.53;100.00;99356.00;1709064;84;21023;-67
2021/07/26 00:47:04;;;;;;;11.10;8.78;;;;;;;19.52;100.00;99355.56;1708555;83;21054;-67
2021/07/26 00:49:31;;;;;;;16.10;8.95;;;;;;;19.50;100.00;99361.84;1708928;83;21631;-66
2021/07/26 00:52:00;;;;;;;13.43;8.88;;;;;;;19.48;100.00;99351.66;1708503;83;21538;-67
2021/07/26 00:54:31;;;;;;;12.82;9.00;;;;;;;19.47;100.00;99349.92;1708606;83;20985;-67
2021/07/26 00:57:04;;;;;;;12.15;8.53;;;;;;;19.42;100.00;99343.88;1709148;83;20992;-66
2021/07/26 00:59:33;;;;;;;16.70;8.53;;;;;;;19.40;100.00;99351.09;1708636;84;21621;-67
2021/07/26 01:02:02;;;;;;;11.68;7.95;;;;;;;19.40;100.00;99356.44;1708533;83;21186;-67
2021/07/26 01:04:32;;;;;;;13.35;8.53;;;;;;;19.37;100.00;99352.98;1708442;83;21509;-67
2021/07/26 01:06:59;;;;;;;17.87;8.98;;;;;;;19.33;100.00;99344.67;1708715;83;20977;-67
2021/07/26 01:09:29;;;;;;;14.23;8.78;;;;;;;19.30;100.00;99345.66;1708598;83;21840;-67
2021/07/26 01:11:58;;;;;;;13.55;8.30;;;;;;;19.29;100.00;99340.37;1708536;83;20953;-69
2021/07/26 01:14:27;;;;;;;12.47;8.50;;;;;;;19.25;100.00;99347.64;1708552;83;21957;-67
2021/07/26 01:16:57;;;;;;;22.15;9.08;;;;;;;19.25;100.00;99346.77;1708541;83;21404;-67
2021/07/26 01:19:26;;;;;;;17.92;8.78;;;;;;;19.25;100.00;99341.41;1708655;83;20936;-67
2021/07/26 01:21:55;;;;;;;13.32;8.05;;;;;;;19.25;100.00;99345.43;1708790;83;21012;-67
2021/07/26 01:24:24;;;;;;;13.70;8.43;;;;;;;19.22;100.00;99345.55;1708589;83;20943;-67
2021/07/26 01:26:53;;;;;;;14.38;8.73;;;;;;;19.19;100.00;99350.08;1708761;83;21149;-68
2021/07/26 01:29:22;;;;;;;11.68;8.48;;;;;;;19.15;100.00;99339.56;1708484;83;21037;-68
2021/07/26 01:31:50;;;;;;;13.35;8.68;;;;;;;19.13;100.00;99340.95;1710498;83;20987;-69
2021/07/26 01:34:19;;;;;;;16.75;8.20;;;;;;;19.12;100.00;99342.35;1714071;83;20896;-69
2021/07/26 01:36:48;;;;;;;14.65;8.65;;;;;;;19.10;100.00;99336.19;1714103;83;20940;-68
2021/07/26 01:39:17;;;;;;;14.85;8.38;;;;;;;19.08;100.00;99338.05;1714157;83;21139;-66
2021/07/26 01:41:54;;;;;;;14.53;8.80;;;;;;;19.04;100.00;99332.41;1714086;83;20992;-66
2021/07/26 01:44:19;;;;;;;14.75;8.30;;;;;;;19.01;100.00;99332.52;1708420;83;21017;-65
2021/07/26 01:47:06;;;;;;;10.75;8.73;;;;;;;18.99;100.00;99343.74;1708680;83;20925;-66
2021/07/26 01:50:01;;;;;;;12.05;8.45;;;;;;;18.98;100.00;99340.66;1708579;83;21447;-65
2021/07/26 01:52:29;;;;;;;13.53;8.05;;;;;;;18.96;100.00;99342.52;1708836;83;21554;-65
2021/07/26 01:54:59;;;;;;;11.35;8.23;;;;;;;18.96;100.00;99342.52;1708745;83;21511;-66
2021/07/26 01:57:28;;;;;;;11.57;7.87;;;;;;;18.96;100.00;99350.54;1708747;83;20992;-66
2021/07/26 01:59:58;;;;;;;14.90;8.08;;;;;;;18.95;100.00;99342.98;1708535;83;21436;-64
2021/07/26 02:02:29;;;;;;;20.97;8.28;;;;;;;18.96;100.00;99346.06;1708720;83;21518;-66
2021/07/26 02:04:58;;;;;;;13.08;8.73;;;;;;;18.96;100.00;99345.19;1681349;84;21474;-64
2021/07/26 02:07:27;;;;;;;13.72;8.70;;;;;;;18.95;100.00;99348.33;1708718;83;20957;-65
2021/07/26 02:09:56;;;;;;;13.68;8.28;;;;;;;18.94;100.00;99348.39;1708548;83;20925;-65
2021/07/26 02:12:25;;;;;;;12.20;8.70;;;;;;;18.96;100.00;99346.53;1708442;83;21507;-65
2021/07/26 02:14:54;;;;;;;14.03;9.30;;;;;;;18.98;100.00;99350.02;1708551;83;20908;-65
2021/07/26 02:17:22;;;;;;;11.38;8.38;;;;;;;18.99;100.00;99353.09;1681201;83;21080;-66
2021/07/26 02:19:51;;;;;;;16.25;9.68;;;;;;;18.98;100.00;99350.89;1708482;83;20953;-65
2021/07/26 02:22:19;;;;;;;20.55;9.15;;;;;;;18.98;100.00;99350.89;1708726;83;21483;-66
2021/07/26 02:24:48;;;;;;;12.80;8.13;;;;;;;18.97;100.00;99354.95;1708442;84;20908;-66
2021/07/26 02:27:17;;;;;;;12.90;8.53;;;;;;;18.96;100.00;99354.55;1708514;83;21001;-64
2021/07/26 02:29:46;;;;;;;16.23;8.05;;;;;;;18.95;100.00;99352.80;1708421;83;21165;-66
2021/07/26 02:32:15;;;;;;;16.40;9.10;;;;;;;18.97;100.00;99353.16;1713775;83;21075;-63
2021/07/26 02:34:44;;;;;;;13.10;8.68;;;;;;;18.97;100.00;99360.30;1721782;83;21569;-66
2021/07/26 02:37:15;;;;;;;13.83;8.58;;;;;;;18.96;100.00;99362.57;1721759;83;21609;-66
2021/07/26 02:39:43;;;;;;;15.72;8.28;;;;;;;18.95;100.00;99362.16;1721822;83;21217;-66
2021/07/26 02:42:12;;;;;;;13.83;8.40;;;;;;;18.92;100.00;99361.81;1722015;83;21957;-66
2021/07/26 02:44:41;;;;;;;10.85;7.30;;;;;;;18.90;100.00;99358.28;1721722;83;20892;-66
2021/07/26 02:47:11;;;;;;;11.10;8.73;;;;;;;18.88;100.00;99361.48;1721976;83;20944;-66
2021/07/26 02:49:40;;;;;;;14.05;8.90;;;;;;;18.90;100.00;99360.09;1721716;83;21593;-66
2021/07/26 02:52:09;;;;;;;12.65;8.65;;;;;;;18.88;100.00;99361.02;1722061;83;21422;-65
2021/07/26 02:54:37;;;;;;;12.10;8.30;;;;;;;18.87;100.00;99361.07;1721728;83;21128;-65
2021/07/26 02:57:06;;;;;;;18.50;8.60;;;;;;;18.85;100.00;99364.27;1721976;83;20991;-66
2021/07/26 02:59:34;;;;;;;13.32;8.63;;;;;;;18.83;100.00;99366.99;1721894;83;21494;-63
2021/07/26 03:02:02;;;;;;;10.85;8.05;;;;;;;18.83;100.00;99366.99;1721812;83;21414;-63
2021/07/26 03:04:32;;;;;;;13.88;8.55;;;;;;;18.84;100.00;99371.41;1721651;83;21038;-64
2021/07/26 03:07:00;;;;;;;14.18;8.68;;;;;;;18.87;100.00;99366.42;1721902;83;21169;-63
2021/07/26 03:09:29;;;;;;;16.73;9.68;;;;;;;18.90;100.00;99374.33;1721696;83;21470;-63
2021/07/26 03:11:58;;;;;;;28.27;14.00;;;;;;;18.91;100.00;99375.20;1721825;83;21530;-63
2021/07/26 03:14:28;;;;;;;20.65;15.63;;;;;;;18.93;100.00;99374.70;1721738;83;20968;-64
2021/07/26 03:16:55;;;;;;;26.07;16.27;;;;;;;18.94;100.00;99373.31;1722044;83;20903;-63
2021/07/26 03:19:24;;;;;;;22.40;14.55;;;;;;;18.97;100.00;99375.01;1721796;83;21459;-63
2021/07/26 03:22:25;;;;;;;26.35;15.63;;;;;;;19.02;100.00;99379.72;1721970;83;20872;-64
2021/07/26 03:24:51;;;;;;;20.45;13.08;;;;;;;19.04;100.00;99381.41;1715518;83;20951;-63
2021/07/26 03:27:19;;;;;;;14.70;11.97;;;;;;;19.08;100.00;99383.03;1721837;83;21071;-64
2021/07/26 03:29:48;;;;;;;16.52;10.70;;;;;;;19.12;100.00;99382.46;1721706;83;21089;-64
2021/07/26 03:32:16;;;;;;;14.98;9.53;;;;;;;19.15;100.00;99381.88;1718418;83;21782;-63
2021/07/26 03:34:45;;;;;;;14.98;10.72;;;;;;;19.21;100.00;99380.78;1708687;84;20869;-63
2021/07/26 03:37:15;;;;;;;15.32;11.55;;;;;;;19.27;100.00;99381.88;1708674;84;21503;-64
2021/07/26 03:39:44;;;;;;;20.48;12.37;;;;;;;19.32;100.00;99393.28;1708666;84;21007;-63
2021/07/26 03:42:13;;;;;;;15.72;11.43;;;;;;;19.36;100.00;99396.25;1709140;84;20964;-71
2021/07/26 03:44:41;;;;;;;17.70;11.55;;;;;;;19.40;100.00;99394.36;1709059;84;21546;-62
2021/07/26 03:47:10;;;;;;;14.53;10.28;;;;;;;19.44;100.00;99402.67;1708681;83;21038;-62
2021/07/26 03:49:38;;;;;;;12.20;9.40;;;;;;;19.50;100.00;99395.75;1708876;83;20864;-63
2021/07/26 03:52:06;;;;;;;15.35;9.30;;;;;;;19.58;100.00;99395.02;1708535;84;20861;-63
2021/07/26 03:54:34;;;;;;;20.72;9.08;;;;;;;19.67;100.00;99401.81;1707343;84;21067;-63
2021/07/26 03:57:03;;;;;;;25.45;10.15;;;;;;;19.72;100.00;99393.14;1708197;83;21168;-64
2021/07/26 03:59:31;;;;;;;20.82;9.63;;;;;;;19.78;100.00;99393.77;1708392;84;21435;-65
2021/07/26 04:02:00;;;;;;;18.02;8.65;;;;;;;19.86;100.00;99393.93;1709119;84;20964;-65
2021/07/26 04:04:28;;;;;;;10.53;8.78;;;;;;;19.92;100.00;99390.57;1708849;84;20984;-65
2021/07/26 04:07:00;;;;;;;12.53;8.45;;;;;;;20.00;100.00;99387.58;1709131;84;20992;-64
2021/07/26 04:09:32;;;;;;;16.67;8.25;;;;;;;20.09;100.00;99393.44;1708904;84;21153;-65
2021/07/26 04:12:03;;;;;;;11.83;8.65;;;;;;;20.16;100.00;99391.37;1708225;84;21435;-64
2021/07/26 04:14:30;;;;;;;13.38;8.88;;;;;;;20.22;100.00;99387.57;1707705;84;21019;-63
2021/07/26 04:16:58;;;;;;;11.88;8.90;;;;;;;20.26;100.00;99386.03;1708904;83;21518;-64
2021/07/26 04:19:26;;;;;;;13.55;9.10;;;;;;;20.30;100.00;99387.66;1708672;83;21557;-64
2021/07/26 04:21:58;;;;;;;15.93;8.63;;;;;;;20.33;100.00;99387.99;1708622;83;21198;-65
2021/07/26 04:24:26;;;;;;;13.47;8.30;;;;;;;20.35;100.00;99384.34;1708827;83;21566;-64
2021/07/26 04:26:56;;;;;;;13.30;9.23;;;;;;;20.35;100.00;99387.02;1708549;83;21068;-64
2021/07/26 04:29:24;;;;;;;12.90;9.43;;;;;;;20.35;100.00;99391.52;1708866;83;21646;-65
2021/07/26 04:31:52;;;;;;;12.63;9.20;;;;;;;20.34;100.00;99389.77;1708568;83;20988;-64
2021/07/26 04:34:21;;;;;;;14.87;10.08;;;;;;;20.36;100.00;99390.11;1711476;83;21494;-63
2021/07/26 04:36:48;;;;;;;30.85;10.80;;;;;;;20.37;100.00;99393.66;1711858;83;21423;-64
2021/07/26 04:39:16;;;;;;;13.90;9.73;;;;;;;20.43;100.00;99397.45;1685432;83;20965;-64
2021/07/26 04:41:45;;;;;;;63.78;13.15;;;;;;;20.51;100.00;99397.99;1750187;80;20856;-63
2021/07/26 04:44:13;;;;;;;87.00;15.00;;;;;;;20.57;100.00;99400.41;1750174;80;20992;-64
2021/07/26 04:46:41;;;;;;;34.08;10.98;;;;;;;20.63;100.00;99393.91;1750405;80;21116;-63
2021/07/26 04:49:09;;;;;;;15.75;10.05;;;;;;;20.68;100.00;99400.82;1750065;82;21007;-63
2021/07/26 04:51:38;;;;;;;22.60;10.32;;;;;;;20.75;100.00;99399.61;1750257;80;20940;-64
2021/07/26 04:54:06;;;;;;;44.42;11.08;;;;;;;20.80;100.00;99399.41;1750203;82;20876;-63
2021/07/26 04:56:34;;;;;;;20.68;10.25;;;;;;;20.85;100.00;99391.20;1750187;80;20933;-63
2021/07/26 04:59:02;;;;;;;23.42;11.05;;;;;;;20.91;100.00;99392.27;1750195;80;21142;-63
2021/07/26 05:01:30;;;;;;;19.45;10.68;;;;;;;20.96;100.00;99393.80;1750130;82;20967;-63
2021/07/26 05:03:59;;;;;;;18.07;10.70;;;;;;;21.01;100.00;99390.92;1750162;80;21011;-63
2021/07/26 05:06:27;;;;;;;19.42;10.43;;;;;;;21.07;100.00;99404.05;1750217;80;20935;-63
2021/07/26 05:08:55;;;;;;;15.68;8.88;;;;;;;21.13;100.00;99400.22;1750155;82;20911;-64
2021/07/26 05:11:23;;;;;;;14.93;9.10;;;;;;;21.19;100.00;99390.09;1750268;80;21430;-63
2021/07/26 05:13:51;;;;;;;13.95;9.00;;;;;;;21.29;100.00;99391.47;1750074;82;20924;-67
2021/07/26 05:16:20;;;;;;;12.50;8.73;;;;;;;21.40;100.00;99398.16;1750170;82;21462;-67
2021/07/26 05:18:52;;;;;;;17.00;9.75;;;;;;;21.46;100.00;99394.72;1750065;82;20991;-67
2021/07/26 05:21:18;;;;;;;14.75;8.80;;;;;;;21.55;100.00;99393.41;1711696;82;20887;-67
2021/07/26 05:23:47;;;;;;;12.65;8.68;;;;;;;21.60;100.00;99398.09;1711902;83;21404;-67
2021/07/26 05:26:16;;;;;;;14.18;8.93;;;;;;;21.68;100.00;99396.78;1711722;82;20863;-67
2021/07/26 05:28:44;;;;;;;14.50;8.13;;;;;;;21.81;100.00;99404.29;1705549;83;20998;-67
2021/07/26 05:31:12;;;;;;;13.25;8.78;;;;;;;21.90;100.00;99406.53;1696130;83;20855;-65
2021/07/26 05:33:41;;;;;;;18.60;8.55;;;;;;;21.94;100.00;99403.62;1685649;84;20926;-65
2021/07/26 05:36:09;;;;;;;15.53;8.93;;;;;;;22.00;100.00;99407.35;1687979;85;21921;-65
2021/07/26 05:38:38;;;;;;;13.70;8.63;;;;;;;22.07;100.00;99412.46;1687702;85;20971;-66
2021/07/26 05:41:08;;;;;;;13.15;8.45;;;;;;;22.13;100.00;99414.84;1687893;85;21418;-66
2021/07/26 05:43:36;;;;;;;17.60;9.15;;;;;;;22.16;100.00;99414.22;1687793;83;21002;-66
2021/07/26 05:46:04;;;;;;;13.70;9.00;;;;;;;22.24;100.00;99409.84;1687716;85;21033;-66
2021/07/26 05:48:32;;;;;;;13.50;8.68;;;;;;;22.33;100.00;99407.17;1687643;83;21173;-65
2021/07/26 05:51:00;;;;;;;10.93;8.30;;;;;;;22.42;100.00;99404.89;1687635;85;21493;-65
2021/07/26 05:53:29;;;;;;;11.50;8.25;;;;;;;22.50;100.00;99405.38;1687738;85;20921;-65
2021/07/26 05:55:56;;;;;;;12.23;8.00;;;;;;;22.62;100.00;99407.44;1687806;83;20942;-66
2021/07/26 05:58:25;;;;;;;11.97;7.60;;;;;;;22.74;100.00;99407.31;1687717;85;20887;-65
2021/07/26 06:01:11;;;;;;;11.12;7.30;;;;;;;22.87;100.00;99403.54;1689404;83;21165;-65
2021/07/26 06:03:39;;;;;;;9.20;7.50;;;;;;;22.98;100.00;99409.23;1711397;83;21034;-65
2021/07/26 06:06:08;;;;;;;14.63;7.78;;;;;;;23.13;100.00;99414.27;1716423;82;21525;-65
2021/07/26 06:08:38;;;;;;;9.18;7.42;;;;;;;23.22;100.00;99411.12;1716339;82;21022;-65
2021/07/26 06:11:07;;;;;;;81.10;11.38;;;;;;;23.31;100.00;99411.97;1716433;83;20970;-65
2021/07/26 06:13:35;;;;;;;13.58;7.55;;;;;;;23.43;100.00;99405.05;1752640;81;21107;-64
2021/07/26 06:16:09;;;;;;;14.65;7.28;;;;;;;23.53;100.00;99403.59;1752454;80;20912;-64
2021/07/26 06:18:37;;;;;;;11.73;7.78;;;;;;;23.66;100.00;99407.88;1752455;80;20932;-65
2021/07/26 06:21:07;;;;;;;20.00;7.25;;;;;;;23.76;100.00;99405.94;1716363;83;21022;-65
2021/07/26 06:23:35;;;;;;;11.73;7.60;;;;;;;23.86;100.00;99400.91;1716798;83;21061;-64
2021/07/26 06:26:06;;;;;;;16.45;7.40;;;;;;;23.97;100.00;99401.64;1716369;83;21111;-65
2021/07/26 06:28:35;;;;;;;16.02;7.25;;;;;;;24.06;100.00;99399.28;1716787;83;20931;-64
2021/07/26 06:31:06;;;;;;;48.42;9.13;;;;;;;24.17;100.00;99401.40;1716447;82;21502;-65
2021/07/26 06:33:37;;;;;;;13.58;7.17;;;;;;;24.28;100.00;99394.94;1713179;82;20963;-65
2021/07/26 06:36:07;;;;;;;11.45;6.97;;;;;;;24.42;100.00;99401.73;1708792;82;21122;-65
2021/07/26 06:38:36;;;;;;;10.23;6.85;;;;;;;24.53;100.00;99404.27;1706958;82;21133;-66
2021/07/26 06:41:06;;;;;;;10.85;7.47;;;;;;;24.62;100.00;99401.94;1708531;84;20923;-67
2021/07/26 06:43:34;;;;;;;9.10;6.58;;;;;;;24.73;100.00;99404.86;1710751;82;20860;-66
2021/07/26 06:46:07;;;;;;;15.55;7.65;;;;;;;24.85;100.00;99405.95;1709052;84;21470;-65
2021/07/26 06:48:36;;;;;;;8.60;6.95;;;;;;;24.95;100.00;99400.86;1708766;84;20927;-64
2021/07/26 06:51:07;;;;;;;10.13;6.65;;;;;;;25.04;100.00;99413.82;1708978;84;21989;-65
2021/07/26 06:53:36;;;;;;;12.28;6.78;;;;;;;25.14;100.00;99404.23;1708686;84;20924;-64
2021/07/26 06:56:08;;;;;;;11.03;6.80;;;;;;;25.25;100.00;99403.08;1708701;84;20971;-65
2021/07/26 06:58:39;;;;;;;13.60;6.87;;;;;;;25.37;100.00;99397.39;1708688;82;20904;-66
2021/07/26 07:01:12;;;;;;;10.88;6.40;;;;;;;25.50;100.00;99405.59;1708954;82;20892;-64
2021/07/26 07:03:40;;;;;;;10.58;6.42;;;;;;;25.62;100.00;99407.54;1708852;84;21102;-64
2021/07/26 07:06:10;;;;;;;7.78;6.70;;;;;;;25.73;100.00;99402.35;1708649;84;21448;-65
2021/07/26 07:08:40;;;;;;;11.33;6.25;;;;;;;25.84;100.00;99407.06;1708773;84;21033;-64
2021/07/26 07:11:16;;;;;;;16.82;6.92;;;;;;;25.94;100.00;99400.96;1708952;82;20935;-67
2021/07/26 07:13:47;;;;;;;8.58;5.67;;;;;;;26.07;100.00;99413.70;1708765;82;20891;-67
2021/07/26 07:16:22;;;;;;;12.18;6.25;;;;;;;26.18;100.00;99416.09;1706243;82;21182;-64
2021/07/26 07:18:54;;;;;;;9.73;5.65;;;;;;;26.32;100.00;99415.17;1708365;82;20994;-67
2021/07/26 07:21:28;;;;;;;15.78;6.00;;;;;;;26.40;100.00;99403.39;1708547;82;20908;-66
2021/07/26 07:24:00;;;;;;;23.83;5.90;;;;;;;26.51;100.00;99404.05;1699451;82;20947;-65
2021/07/26 07:26:30;;;;;;;10.63;5.42;;;;;;;26.62;100.00;99406.41;1680011;84;35809;-64
2021/07/26 07:28:58;;;;;;;11.30;5.80;;;;;;;26.73;100.00;99400.75;1680070;84;21443;-64
2021/07/26 07:31:28;;;;;;;6.47;4.75;;;;;;;26.82;100.00;99398.28;1680045;84;21434;-65
2021/07/26 07:33:56;;;;;;;6.15;4.22;;;;;;;26.92;100.00;99398.51;1683447;83;20879;-65
2021/07/26 07:36:24;;;;;;;8.10;4.67;;;;;;;27.00;100.00;99400.75;1688345;83;20949;-67
2021/07/26 07:38:52;;;;;;;10.05;4.83;;;;;;;27.08;100.00;99399.23;1688445;83;20918;-66
2021/07/26 07:41:20;;;;;;;12.25;4.83;;;;;;;27.16;100.00;99409.53;1688404;83;21182;-66
2021/07/26 07:43:48;;;;;;;79.40;10.30;;;;;;;27.24;100.00;99397.67;1688398;83;20895;-66
2021/07/26 07:46:17;;;;;;;14.75;4.35;;;;;;;27.33;99.83;99398.37;1688454;83;20951;-65
2021/07/26 07:48:45;;;;;;;11.03;4.05;;;;;;;27.43;99.59;99401.30;1692840;83;21509;-65
2021/07/26 07:51:13;;;;;;;9.48;4.08;;;;;;;27.51;95.62;99393.02;1692877;83;21014;-67
2021/07/26 07:53:41;;;;;;;6.85;4.08;;;;;;;27.63;92.17;99399.44;1692914;83;21779;-66
2021/07/26 07:56:09;;;;;;;7.55;3.95;;;;;;;27.71;90.94;99401.59;1692935;83;21437;-68
2021/07/26 07:58:37;;;;;;;17.32;3.92;;;;;;;27.77;87.04;99404.72;1693130;83;21429;-65
2021/07/26 08:01:04;;;;;;;11.12;3.80;;;;;;;27.83;84.33;99400.20;1692860;83;20908;-67
2021/07/26 08:03:32;;;;;;;8.10;3.62;;;;;;;27.94;84.56;99406.23;1692324;83;21836;-67
2021/07/26 08:06:02;;;;;;;7.92;4.00;;;;;;;28.04;81.88;99405.06;1692128;84;21140;-67
2021/07/26 08:08:30;;;;;;;26.25;5.70;;;;;;;28.08;82.98;99402.50;1689259;84;20990;-67
2021/07/26 08:10:58;;;;;;;9.60;4.20;;;;;;;28.09;82.33;99397.45;1668048;84;21003;-66
2021/07/26 08:13:26;;;;;;;32.30;5.55;;;;;;;28.14;82.41;99404.75;1641515;85;21016;-68
2021/07/26 08:15:56;;;;;;;7.60;3.37;;;;;;;28.22;79.65;99409.98;1636607;85;21016;-65
2021/07/26 08:18:30;;;;;;;;;;;;;;;28.32;78.79;99405.25;1642081;85;20964;-66
2021/07/26 08:20:58;;;;;;;;;;;;;;;28.42;78.94;99407.69;1683336;85;20449;-65
2021/07/26 08:23:27;;;;;;;6.62;4.30;;;;;;;28.48;76.53;99402.66;1680499;84;20118;-65
2021/07/26 08:25:54;;;;;;;6.15;4.10;;;;;;;28.54;76.57;99404.04;1652424;85;20962;-65
2021/07/26 08:28:22;;;;;;;58.50;8.05;;;;;;;28.60;76.32;99405.42;1655514;85;21078;-64
2021/07/26 08:30:50;;;;;;;99.72;8.68;;;;;;;28.67;75.12;99409.39;1661662;84;21215;-65
2021/07/26 08:33:20;;;;;;;8.98;4.22;;;;;;;28.72;73.40;99406.70;1655436;85;21621;-65
2021/07/26 08:35:48;;;;;;;19.10;5.40;;;;;;;28.75;70.29;99408.31;1660873;84;20988;-64
2021/07/26 08:38:15;;;;;;;9.60;4.00;;;;;;;28.81;71.68;99407.35;1664832;84;21185;-63
2021/07/26 08:40:44;;;;;;;10.65;4.60;;;;;;;28.90;72.29;99411.77;1653842;85;20932;-64
2021/07/26 08:43:12;;;;;;;6.03;4.35;;;;;;;28.92;68.11;99407.94;1617298;86;21183;-64
2021/07/26 08:45:39;;;;;;;10.93;3.90;;;;;;;28.94;65.29;99409.19;1695917;82;21030;-64
2021/07/26 08:48:09;;;;;;;28.42;5.15;;;;;;;29.01;67.24;99401.80;1698932;82;20928;-67
2021/07/26 08:50:41;;;;;;;8.43;4.00;;;;;;;29.07;66.79;99407.23;1665121;84;20889;-65
2021/07/26 08:53:11;;;;;;;16.17;4.83;;;;;;;29.11;64.14;99401.94;1703766;82;21137;-66
2021/07/26 08:55:44;;;;;;;17.75;4.30;;;;;;;29.16;64.10;99395.65;1656301;85;21120;-66
2021/07/26 08:58:13;;;;;;;7.17;3.87;;;;;;;29.24;64.91;99395.91;1698229;83;20952;-67
2021/07/26 09:00:41;;;;;;;5.92;3.92;;;;;;;29.35;63.31;99390.52;1712854;82;20990;-65
2021/07/26 09:03:08;;;;;;;10.38;3.90;;;;;;;29.47;64.65;99395.50;1698407;82;20955;-65
2021/07/26 09:05:38;;;;;;;6.95;3.72;;;;;;;29.57;62.40;99397.84;1673980;84;20967;-63
2021/07/26 09:08:07;;;;;;;24.63;3.92;;;;;;;29.62;57.55;99396.12;1709755;82;21143;-67
2021/07/26 09:10:38;;;;;;;8.63;3.60;;;;;;;29.70;54.91;99397.72;1688541;82;20904;-65
2021/07/26 09:13:08;;;;;;;6.78;3.52;;;;;;;29.80;56.18;99396.48;1693270;81;20975;-70
2021/07/26 09:15:38;;;;;;;7.70;3.83;;;;;;;29.88;52.92;99400.33;1710847;82;21550;-67
2021/07/26 09:18:10;;;;;;;;;;;;;;;29.94;54.96;99396.25;1697572;82;21019;-67
2021/07/26 09:20:43;;;;;;;8.08;3.85;;;;;;;30.01;53.10;99395.61;1667788;83;21112;-66
2021/07/26 09:23:15;;;;;;;9.23;3.70;;;;;;;30.08;55.82;99403.67;1649436;85;20945;-67
2021/07/26 09:25:47;;;;;;;7.83;3.80;;;;;;;30.17;54.29;99401.17;1683594;83;21683;-67
2021/07/26 09:28:16;;;;;;;6.92;3.55;;;;;;;30.20;53.13;99399.06;1664374;84;20976;-67
2021/07/26 09:30:52;;;;;;;6.22;3.92;;;;;;;30.26;52.67;99399.05;1700204;82;20885;-66
2021/07/26 09:33:29;;;;;;;19.25;4.10;;;;;;;30.29;51.65;99398.83;1675379;84;21788;-66
2021/07/26 09:36:20;;;;;;;8.65;3.77;;;;;;;30.34;50.53;99393.37;1677944;85;21399;-67
2021/07/26 09:38:56;;;;;;;7.37;3.97;;;;;;;30.41;49.81;99395.08;1708479;82;21522;-68
2021/07/26 09:41:46;;;;;;;5.28;3.42;;;;;;;30.46;47.70;99394.19;1703409;82;21031;-69
2021/07/26 09:44:14;;;;;;;89.97;8.13;;;;;;;30.42;45.80;99385.05;1709956;83;21561;-68
2021/07/26 09:46:43;;;;;;;7.90;3.55;;;;;;;30.44;47.54;99382.56;1716311;82;21110;-68
2021/07/26 09:49:13;;;;;;;7.33;3.33;;;;;;;30.43;49.29;99378.12;1711236;82;20965;-68
2021/07/26 09:51:41;;;;;;;36.45;4.17;;;;;;;30.34;47.47;99383.84;1703754;82;21007;-69
2021/07/26 09:54:08;;;;;;;6.58;3.50;;;;;;;30.28;45.90;99379.41;1672281;84;20946;-67
2021/07/26 09:56:38;;;;;;;10.23;3.75;;;;;;;30.25;44.47;99383.22;1706241;82;20947;-67
2021/07/26 09:59:06;;;;;;;17.05;4.28;;;;;;;30.31;45.70;99378.66;1697608;82;21182;-67
2021/07/26 10:01:34;;;;;;;127.55;13.18;;;;;;;30.36;43.62;99379.62;1654850;85;20908;-69
2021/07/26 10:04:04;;;;;;;8.48;3.85;;;;;;;30.35;43.35;99380.12;1704615;82;20927;-69
2021/07/26 10:06:31;;;;;;;32.73;5.50;;;;;;;30.30;42.67;99386.45;1704179;82;21419;-68
2021/07/26 10:09:00;;;;;;;8.98;3.92;;;;;;;30.27;43.66;99385.81;1655026;85;20956;-69
2021/07/26 10:11:27;;;;;;;6.25;3.35;;;;;;;30.27;44.25;99383.98;1712594;82;21122;-69
2021/07/26 10:13:55;;;;;;;8.35;3.62;;;;;;;30.29;45.33;99387.94;1711863;82;21103;-69
2021/07/26 10:16:23;;;;;;;90.83;11.78;;;;;;;30.26;43.73;99383.59;1704868;82;21553;-67
2021/07/26 10:18:52;;;;;;;10.23;3.72;;;;;;;30.27;44.94;99387.17;1704127;82;21549;-68
2021/07/26 10:21:23;;;;;;;25.92;4.65;;;;;;;30.27;44.94;99380.37;1706966;82;21604;-68
2021/07/26 10:23:54;;;;;;;;;;;;;;;30.28;46.75;99378.05;1708988;82;21113;-67
2021/07/26 10:26:40;;;;;;;63.95;7.25;;;;;;;30.32;44.49;99373.58;1710922;82;20454;-68
2021/07/26 10:29:08;;;;;;;20.90;4.17;;;;;;;30.35;43.99;99365.16;1675362;84;21023;-68
2021/07/26 10:31:37;;;;;;;6.30;3.33;;;;;;;30.43;43.58;99363.14;1703358;82;21051;-70
2021/07/26 10:34:15;;;;;;;13.55;3.98;;;;;;;30.56;43.15;99365.19;1705509;82;21410;-69
2021/07/26 10:36:48;;;;;;;7.03;3.90;;;;;;;30.69;41.81;99364.54;1666959;84;21153;-70
2021/07/26 10:39:19;;;;;;;5.28;3.50;;;;;;;30.85;42.92;99360.53;1695611;82;20979;-69
2021/07/26 10:41:57;;;;;;;9.05;3.65;;;;;;;30.99;43.88;99362.91;1705690;82;21492;-68
2021/07/26 10:44:37;;;;;;;38.80;4.70;;;;;;;31.08;42.16;99363.47;1704552;83;20956;-69
2021/07/26 10:47:13;;;;;;;6.97;3.55;;;;;;;31.16;42.36;99365.06;1664145;84;20944;-70
2021/07/26 10:50:10;;;;;;;35.70;6.50;;;;;;;31.21;41.98;99370.97;1698829;82;22318;-69
2021/07/26 10:52:44;;;;;;;10.38;4.08;;;;;;;31.24;43.41;99373.95;1666994;85;20971;-68
2021/07/26 10:55:16;;;;;;;6.17;3.80;;;;;;;31.21;43.88;99368.74;1696068;83;20948;-68
2021/07/26 10:57:43;;;;;;;;;;;;;;;31.22;42.34;99368.64;1706712;82;21564;-69
2021/07/26 11:00:22;;;;;;;6.15;3.70;;;;;;;31.31;41.94;99362.88;1696355;82;20083;-69
2021/07/26 11:02:50;;;;;;;8.23;4.08;;;;;;;31.43;41.25;99356.34;1712522;82;21175;-69
2021/07/26 11:05:31;;;;;;;5.50;3.53;;;;;;;31.61;41.33;99353.83;1708206;83;20920;-68
2021/07/26 11:08:23;;;;;;;7.30;3.95;;;;;;;31.75;40.52;99356.23;1700522;82;21570;-68
2021/07/26 11:10:53;;;;;;;12.58;4.20;;;;;;;31.88;41.32;99350.03;1704489;82;20971;-68
2021/07/26 11:13:21;;;;;;;5.37;3.67;;;;;;;31.92;42.07;99355.56;1698771;82;21055;-68
2021/07/26 11:15:54;;;;;;;5.20;3.80;;;;;;;31.91;41.92;99362.02;1660946;84;21181;-68
2021/07/26 11:18:28;;;;;;;;;;;;;;;31.90;42.36;99353.98;1683328;84;21471;-68
2021/07/26 11:21:12;;;;;;;5.97;3.77;;;;;;;31.90;40.62;99347.16;1680009;85;20123;-68
2021/07/26 11:23:53;;;;;;;8.13;3.80;;;;;;;31.95;41.09;99346.23;1647790;85;20939;-68
2021/07/26 11:26:30;;;;;;;8.87;3.87;;;;;;;31.99;39.94;99342.72;1685758;83;21590;-69
2021/07/26 11:29:04;;;;;;;6.33;3.50;;;;;;;32.10;38.96;99341.23;1674129;85;21889;-69
2021/07/26 11:31:34;;;;;;;5.42;3.77;;;;;;;32.24;38.65;99340.38;1680194;84;20943;-68
2021/07/26 11:34:07;;;;;;;6.35;3.83;;;;;;;32.35;37.33;99339.89;1666724;84;20931;-69
2021/07/26 11:36:36;;;;;;;7.20;3.55;;;;;;;32.48;38.54;99333.63;1702477;82;21542;-66